sensor_id;sensor_type;location;lat;lon;timestamp;temperature;humidity
46932;DHT22;32670;51.464;11.964;2024-01-06T00:00:13;22.20;52.80
46932;DHT22;32670;51.464;11.964;2024-01-06T00:02:39;22.30;52.80
46932;DHT22;32670;51.464;11.964;2024-01-06T00:05:05;22.30;52.90
46932;DHT22;32670;51.464;11.964;2024-01-06T00:07:30;22.30;52.90
46932;DHT22;32670;51.464;11.964;2024-01-06T00:09:56;22.30;53.00
46932;DHT22;32670;51.464;11.964;2024-01-06T00:12:21;22.30;52.90
46932;DHT22;32670;51.464;11.964;2024-01-06T00:14:47;22.30;53.00
46932;DHT22;32670;51.464;11.964;2024-01-06T00:17:12;22.30;53.00
46932;DHT22;32670;51.464;11.964;2024-01-06T00:19:38;22.30;53.10
46932;DHT22;32670;51.464;11.964;2024-01-06T00:22:03;22.30;53.20
46932;DHT22;32670;51.464;11.964;2024-01-06T00:24:29;22.30;53.30
46932;DHT22;32670;51.464;11.964;2024-01-06T00:26:54;22.40;54.00
46932;DHT22;32670;51.464;11.964;2024-01-06T00:29:19;22.40;53.40
46932;DHT22;32670;51.464;11.964;2024-01-06T00:31:45;22.40;53.40
46932;DHT22;32670;51.464;11.964;2024-01-06T00:34:10;22.40;53.30
46932;DHT22;32670;51.464;11.964;2024-01-06T00:36:36;22.40;53.30
46932;DHT22;32670;51.464;11.964;2024-01-06T00:39:01;22.40;53.30
46932;DHT22;32670;51.464;11.964;2024-01-06T00:41:27;22.40;53.20
46932;DHT22;32670;51.464;11.964;2024-01-06T00:43:52;22.50;53.40
46932;DHT22;32670;51.464;11.964;2024-01-06T00:46:18;22.40;53.30
46932;DHT22;32670;51.464;11.964;2024-01-06T00:48:43;22.40;53.10
46932;DHT22;32670;51.464;11.964;2024-01-06T00:51:09;22.50;53.20
46932;DHT22;32670;51.464;11.964;2024-01-06T00:53:34;22.50;53.30
46932;DHT22;32670;51.464;11.964;2024-01-06T00:55:59;22.50;53.30
46932;DHT22;32670;51.464;11.964;2024-01-06T00:58:25;22.50;53.60
46932;DHT22;32670;51.464;11.964;2024-01-06T01:00:50;22.50;53.60
46932;DHT22;32670;51.464;11.964;2024-01-06T01:03:18;22.50;53.60
46932;DHT22;32670;51.464;11.964;2024-01-06T01:05:44;22.50;53.60
46932;DHT22;32670;51.464;11.964;2024-01-06T01:08:09;22.50;53.60
46932;DHT22;32670;51.464;11.964;2024-01-06T01:10:35;22.50;53.60
46932;DHT22;32670;51.464;11.964;2024-01-06T01:13:00;22.50;53.70
46932;DHT22;32670;51.464;11.964;2024-01-06T01:15:25;22.50;53.60
46932;DHT22;32670;51.464;11.964;2024-01-06T01:17:51;22.50;53.60
46932;DHT22;32670;51.464;11.964;2024-01-06T01:20:16;22.50;53.40
46932;DHT22;32670;51.464;11.964;2024-01-06T01:22:42;22.50;53.30
46932;DHT22;32670;51.464;11.964;2024-01-06T01:25:07;22.50;53.40
46932;DHT22;32670;51.464;11.964;2024-01-06T01:27:36;22.50;53.30
46932;DHT22;32670;51.464;11.964;2024-01-06T01:30:01;22.50;53.50
46932;DHT22;32670;51.464;11.964;2024-01-06T01:32:27;22.50;53.60
46932;DHT22;32670;51.464;11.964;2024-01-06T01:34:52;22.50;53.60
46932;DHT22;32670;51.464;11.964;2024-01-06T01:37:18;22.50;53.70
46932;DHT22;32670;51.464;11.964;2024-01-06T01:39:43;22.50;53.60
46932;DHT22;32670;51.464;11.964;2024-01-06T01:42:09;22.50;53.70
46932;DHT22;32670;51.464;11.964;2024-01-06T01:44:34;22.50;53.60
46932;DHT22;32670;51.464;11.964;2024-01-06T01:47:03;22.50;53.60
46932;DHT22;32670;51.464;11.964;2024-01-06T01:49:29;22.50;53.60
46932;DHT22;32670;51.464;11.964;2024-01-06T01:51:55;22.50;53.70
46932;DHT22;32670;51.464;11.964;2024-01-06T01:54:20;22.50;53.80
46932;DHT22;32670;51.464;11.964;2024-01-06T01:56:46;22.50;53.80
46932;DHT22;32670;51.464;11.964;2024-01-06T01:59:13;22.60;53.80
46932;DHT22;32670;51.464;11.964;2024-01-06T02:01:41;22.50;54.00
46932;DHT22;32670;51.464;11.964;2024-01-06T02:04:08;22.50;54.10
46932;DHT22;32670;51.464;11.964;2024-01-06T02:06:33;22.50;54.00
46932;DHT22;32670;51.464;11.964;2024-01-06T02:08:59;22.60;54.30
46932;DHT22;32670;51.464;11.964;2024-01-06T02:11:24;22.60;54.30
46932;DHT22;32670;51.464;11.964;2024-01-06T02:13:50;22.60;54.20
46932;DHT22;32670;51.464;11.964;2024-01-06T02:16:15;22.60;54.20
46932;DHT22;32670;51.464;11.964;2024-01-06T02:18:41;22.60;54.30
46932;DHT22;32670;51.464;11.964;2024-01-06T02:21:06;22.60;54.20
46932;DHT22;32670;51.464;11.964;2024-01-06T02:23:35;22.60;54.30
46932;DHT22;32670;51.464;11.964;2024-01-06T02:26:01;22.60;54.70
46932;DHT22;32670;51.464;11.964;2024-01-06T02:28:27;22.60;54.20
46932;DHT22;32670;51.464;11.964;2024-01-06T02:30:52;22.60;54.20
46932;DHT22;32670;51.464;11.964;2024-01-06T02:33:18;22.60;54.20
46932;DHT22;32670;51.464;11.964;2024-01-06T02:35:48;22.60;54.20
46932;DHT22;32670;51.464;11.964;2024-01-06T02:38:13;22.60;54.20
46932;DHT22;32670;51.464;11.964;2024-01-06T02:40:39;22.60;54.30
46932;DHT22;32670;51.464;11.964;2024-01-06T02:43:04;22.60;54.60
46932;DHT22;32670;51.464;11.964;2024-01-06T02:45:30;22.60;54.60
46932;DHT22;32670;51.464;11.964;2024-01-06T02:47:55;22.60;54.50
46932;DHT22;32670;51.464;11.964;2024-01-06T02:50:21;22.60;54.70
46932;DHT22;32670;51.464;11.964;2024-01-06T02:52:46;22.60;54.60
46932;DHT22;32670;51.464;11.964;2024-01-06T02:55:12;22.60;54.60
46932;DHT22;32670;51.464;11.964;2024-01-06T02:57:38;22.60;54.50
46932;DHT22;32670;51.464;11.964;2024-01-06T03:00:04;22.60;54.70
46932;DHT22;32670;51.464;11.964;2024-01-06T03:02:30;22.60;54.70
46932;DHT22;32670;51.464;11.964;2024-01-06T03:04:55;22.60;54.70
46932;DHT22;32670;51.464;11.964;2024-01-06T03:07:21;22.60;54.70
46932;DHT22;32670;51.464;11.964;2024-01-06T03:09:47;22.50;54.60
46932;DHT22;32670;51.464;11.964;2024-01-06T03:12:12;22.60;54.70
46932;DHT22;32670;51.464;11.964;2024-01-06T03:14:38;22.60;54.80
46932;DHT22;32670;51.464;11.964;2024-01-06T03:17:04;22.60;54.70
46932;DHT22;32670;51.464;11.964;2024-01-06T03:19:30;22.60;54.80
46932;DHT22;32670;51.464;11.964;2024-01-06T03:21:56;22.60;54.80
46932;DHT22;32670;51.464;11.964;2024-01-06T03:24:22;22.60;54.80
46932;DHT22;32670;51.464;11.964;2024-01-06T03:26:48;22.60;54.80
46932;DHT22;32670;51.464;11.964;2024-01-06T03:29:13;22.60;54.80
46932;DHT22;32670;51.464;11.964;2024-01-06T03:31:42;22.60;54.70
46932;DHT22;32670;51.464;11.964;2024-01-06T03:34:08;22.60;54.90
46932;DHT22;32670;51.464;11.964;2024-01-06T03:36:33;22.60;54.80
46932;DHT22;32670;51.464;11.964;2024-01-06T03:38:59;22.60;55.00
46932;DHT22;32670;51.464;11.964;2024-01-06T03:41:24;22.60;54.90
46932;DHT22;32670;51.464;11.964;2024-01-06T03:43:50;22.60;54.80
46932;DHT22;32670;51.464;11.964;2024-01-06T03:46:15;22.60;55.00
46932;DHT22;32670;51.464;11.964;2024-01-06T03:48:41;22.70;55.10
46932;DHT22;32670;51.464;11.964;2024-01-06T03:51:07;22.70;55.10
46932;DHT22;32670;51.464;11.964;2024-01-06T03:53:32;22.60;55.00
46932;DHT22;32670;51.464;11.964;2024-01-06T03:55:58;22.60;55.00
46932;DHT22;32670;51.464;11.964;2024-01-06T03:58:24;22.70;55.00
46932;DHT22;32670;51.464;11.964;2024-01-06T04:00:49;22.60;55.00
46932;DHT22;32670;51.464;11.964;2024-01-06T04:03:14;22.70;55.00
46932;DHT22;32670;51.464;11.964;2024-01-06T04:05:40;22.60;55.00
46932;DHT22;32670;51.464;11.964;2024-01-06T04:08:06;22.60;55.00
46932;DHT22;32670;51.464;11.964;2024-01-06T04:10:31;22.60;55.00
46932;DHT22;32670;51.464;11.964;2024-01-06T04:12:56;22.70;55.10
46932;DHT22;32670;51.464;11.964;2024-01-06T04:15:22;22.70;55.00
46932;DHT22;32670;51.464;11.964;2024-01-06T04:17:49;22.60;55.00
46932;DHT22;32670;51.464;11.964;2024-01-06T04:20:14;22.60;55.10
46932;DHT22;32670;51.464;11.964;2024-01-06T04:22:40;22.60;55.00
46932;DHT22;32670;51.464;11.964;2024-01-06T04:25:05;22.70;55.30
46932;DHT22;32670;51.464;11.964;2024-01-06T04:27:31;22.70;55.50
46932;DHT22;32670;51.464;11.964;2024-01-06T04:29:59;22.70;55.50
46932;DHT22;32670;51.464;11.964;2024-01-06T04:32:24;22.70;55.60
46932;DHT22;32670;51.464;11.964;2024-01-06T04:34:50;22.70;55.60
46932;DHT22;32670;51.464;11.964;2024-01-06T04:37:15;22.70;55.60
46932;DHT22;32670;51.464;11.964;2024-01-06T04:39:41;22.70;55.60
46932;DHT22;32670;51.464;11.964;2024-01-06T04:42:06;22.70;55.70
46932;DHT22;32670;51.464;11.964;2024-01-06T04:44:31;22.70;55.70
46932;DHT22;32670;51.464;11.964;2024-01-06T04:46:57;22.70;55.70
46932;DHT22;32670;51.464;11.964;2024-01-06T04:49:22;22.70;55.80
46932;DHT22;32670;51.464;11.964;2024-01-06T04:51:48;22.70;56.00
46932;DHT22;32670;51.464;11.964;2024-01-06T04:54:14;22.70;55.90
46932;DHT22;32670;51.464;11.964;2024-01-06T04:56:39;22.70;55.80
46932;DHT22;32670;51.464;11.964;2024-01-06T04:59:05;22.70;55.90
46932;DHT22;32670;51.464;11.964;2024-01-06T05:01:30;22.70;55.90
46932;DHT22;32670;51.464;11.964;2024-01-06T05:03:56;22.70;55.90
46932;DHT22;32670;51.464;11.964;2024-01-06T05:06:22;22.70;55.80
46932;DHT22;32670;51.464;11.964;2024-01-06T05:08:48;22.70;55.80
46932;DHT22;32670;51.464;11.964;2024-01-06T05:11:13;22.70;55.90
46932;DHT22;32670;51.464;11.964;2024-01-06T05:13:39;22.70;55.90
46932;DHT22;32670;51.464;11.964;2024-01-06T05:16:05;22.70;55.90
46932;DHT22;32670;51.464;11.964;2024-01-06T05:18:30;22.70;56.00
46932;DHT22;32670;51.464;11.964;2024-01-06T05:20:56;22.80;55.90
46932;DHT22;32670;51.464;11.964;2024-01-06T05:23:22;22.70;55.90
46932;DHT22;32670;51.464;11.964;2024-01-06T05:25:47;22.70;56.00
46932;DHT22;32670;51.464;11.964;2024-01-06T05:28:13;22.70;55.90
46932;DHT22;32670;51.464;11.964;2024-01-06T05:30:38;22.70;55.80
46932;DHT22;32670;51.464;11.964;2024-01-06T05:33:04;22.70;55.80
46932;DHT22;32670;51.464;11.964;2024-01-06T05:35:29;22.70;56.00
46932;DHT22;32670;51.464;11.964;2024-01-06T05:37:55;22.70;56.00
46932;DHT22;32670;51.464;11.964;2024-01-06T05:40:21;22.70;55.90
46932;DHT22;32670;51.464;11.964;2024-01-06T05:42:46;22.80;56.00
46932;DHT22;32670;51.464;11.964;2024-01-06T05:45:12;22.70;55.90
46932;DHT22;32670;51.464;11.964;2024-01-06T05:47:38;22.80;55.90
46932;DHT22;32670;51.464;11.964;2024-01-06T05:50:04;22.70;55.70
46932;DHT22;32670;51.464;11.964;2024-01-06T05:52:30;22.80;55.80
46932;DHT22;32670;51.464;11.964;2024-01-06T05:54:55;22.70;56.00
46932;DHT22;32670;51.464;11.964;2024-01-06T05:57:20;22.80;56.00
46932;DHT22;32670;51.464;11.964;2024-01-06T05:59:46;22.70;56.00
46932;DHT22;32670;51.464;11.964;2024-01-06T06:02:11;22.70;56.00
46932;DHT22;32670;51.464;11.964;2024-01-06T06:04:37;22.80;56.00
46932;DHT22;32670;51.464;11.964;2024-01-06T06:07:02;22.80;55.90
46932;DHT22;32670;51.464;11.964;2024-01-06T06:09:28;22.80;55.90
46932;DHT22;32670;51.464;11.964;2024-01-06T06:11:54;22.80;56.00
46932;DHT22;32670;51.464;11.964;2024-01-06T06:14:19;22.80;55.90
46932;DHT22;32670;51.464;11.964;2024-01-06T06:16:45;22.80;56.00
46932;DHT22;32670;51.464;11.964;2024-01-06T06:19:12;22.80;56.00
46932;DHT22;32670;51.464;11.964;2024-01-06T06:21:37;22.70;56.00
46932;DHT22;32670;51.464;11.964;2024-01-06T06:24:03;22.80;56.10
46932;DHT22;32670;51.464;11.964;2024-01-06T06:26:29;22.80;56.00
46932;DHT22;32670;51.464;11.964;2024-01-06T06:28:54;22.70;56.00
46932;DHT22;32670;51.464;11.964;2024-01-06T06:31:19;22.80;56.10
46932;DHT22;32670;51.464;11.964;2024-01-06T06:33:45;22.80;56.40
46932;DHT22;32670;51.464;11.964;2024-01-06T06:36:10;22.80;56.10
46932;DHT22;32670;51.464;11.964;2024-01-06T06:38:36;22.80;55.80
46932;DHT22;32670;51.464;11.964;2024-01-06T06:41:01;22.80;55.80
46932;DHT22;32670;51.464;11.964;2024-01-06T06:43:27;22.80;55.80
46932;DHT22;32670;51.464;11.964;2024-01-06T06:45:53;22.80;56.40
46932;DHT22;32670;51.464;11.964;2024-01-06T06:48:18;22.80;55.80
46932;DHT22;32670;51.464;11.964;2024-01-06T06:50:44;22.80;55.80
46932;DHT22;32670;51.464;11.964;2024-01-06T06:53:09;22.80;56.40
46932;DHT22;32670;51.464;11.964;2024-01-06T06:55:35;22.80;56.20
46932;DHT22;32670;51.464;11.964;2024-01-06T06:58:03;22.80;56.10
46932;DHT22;32670;51.464;11.964;2024-01-06T07:00:28;22.80;56.00
46932;DHT22;32670;51.464;11.964;2024-01-06T07:02:54;22.80;55.80
46932;DHT22;32670;51.464;11.964;2024-01-06T07:05:19;22.80;54.40
46932;DHT22;32670;51.464;11.964;2024-01-06T07:07:45;22.70;53.00
46932;DHT22;32670;51.464;11.964;2024-01-06T07:10:12;22.60;52.00
46932;DHT22;32670;51.464;11.964;2024-01-06T07:12:38;22.60;51.10
46932;DHT22;32670;51.464;11.964;2024-01-06T07:15:04;22.50;50.20
46932;DHT22;32670;51.464;11.964;2024-01-06T07:17:29;22.40;49.40
46932;DHT22;32670;51.464;11.964;2024-01-06T07:19:55;22.40;48.60
46932;DHT22;32670;51.464;11.964;2024-01-06T07:22:21;22.30;48.00
46932;DHT22;32670;51.464;11.964;2024-01-06T07:24:46;22.30;47.60
46932;DHT22;32670;51.464;11.964;2024-01-06T07:27:12;22.30;47.20
46932;DHT22;32670;51.464;11.964;2024-01-06T07:29:38;22.20;46.90
46932;DHT22;32670;51.464;11.964;2024-01-06T07:32:04;22.20;46.60
46932;DHT22;32670;51.464;11.964;2024-01-06T07:34:31;22.10;46.20
46932;DHT22;32670;51.464;11.964;2024-01-06T07:36:57;22.10;46.10
46932;DHT22;32670;51.464;11.964;2024-01-06T07:39:23;22.10;46.00
46932;DHT22;32670;51.464;11.964;2024-01-06T07:41:49;22.10;45.70
46932;DHT22;32670;51.464;11.964;2024-01-06T07:44:15;22.00;45.50
46932;DHT22;32670;51.464;11.964;2024-01-06T07:46:41;22.00;45.30
46932;DHT22;32670;51.464;11.964;2024-01-06T07:49:07;22.00;45.20
46932;DHT22;32670;51.464;11.964;2024-01-06T07:51:32;22.00;45.10
46932;DHT22;32670;51.464;11.964;2024-01-06T07:54:00;22.00;44.60
46932;DHT22;32670;51.464;11.964;2024-01-06T07:56:26;22.00;45.30
46932;DHT22;32670;51.464;11.964;2024-01-06T07:58:52;22.00;45.20
46932;DHT22;32670;51.464;11.964;2024-01-06T08:01:18;21.90;45.50
46932;DHT22;32670;51.464;11.964;2024-01-06T08:03:43;21.80;40.20
46932;DHT22;32670;51.464;11.964;2024-01-06T08:06:09;21.40;37.40
46932;DHT22;32670;51.464;11.964;2024-01-06T08:08:35;21.00;36.70
46932;DHT22;32670;51.464;11.964;2024-01-06T08:11:01;20.80;36.50
46932;DHT22;32670;51.464;11.964;2024-01-06T08:13:26;20.40;36.50
46932;DHT22;32670;51.464;11.964;2024-01-06T08:15:51;20.20;36.70
46932;DHT22;32670;51.464;11.964;2024-01-06T08:18:17;20.00;36.30
46932;DHT22;32670;51.464;11.964;2024-01-06T08:20:43;19.80;37.10
46932;DHT22;32670;51.464;11.964;2024-01-06T08:23:09;19.70;37.10
46932;DHT22;32670;51.464;11.964;2024-01-06T08:25:36;19.60;37.40
46932;DHT22;32670;51.464;11.964;2024-01-06T08:28:01;19.50;37.20
46932;DHT22;32670;51.464;11.964;2024-01-06T08:30:27;19.30;37.20
46932;DHT22;32670;51.464;11.964;2024-01-06T08:32:52;19.20;37.10
46932;DHT22;32670;51.464;11.964;2024-01-06T08:35:18;19.10;37.20
46932;DHT22;32670;51.464;11.964;2024-01-06T08:37:45;19.00;37.30
46932;DHT22;32670;51.464;11.964;2024-01-06T08:40:10;18.90;37.40
46932;DHT22;32670;51.464;11.964;2024-01-06T08:42:36;18.80;37.70
46932;DHT22;32670;51.464;11.964;2024-01-06T08:45:02;18.70;37.70
46932;DHT22;32670;51.464;11.964;2024-01-06T08:47:27;18.70;37.90
46932;DHT22;32670;51.464;11.964;2024-01-06T08:49:53;18.60;38.60
46932;DHT22;32670;51.464;11.964;2024-01-06T08:52:18;18.50;38.00
46932;DHT22;32670;51.464;11.964;2024-01-06T08:54:44;18.30;38.20
46932;DHT22;32670;51.464;11.964;2024-01-06T08:57:10;18.40;39.80
46932;DHT22;32670;51.464;11.964;2024-01-06T08:59:35;18.70;40.70
46932;DHT22;32670;51.464;11.964;2024-01-06T09:02:01;19.00;41.10
46932;DHT22;32670;51.464;11.964;2024-01-06T09:04:26;19.20;41.30
46932;DHT22;32670;51.464;11.964;2024-01-06T09:06:52;19.40;41.50
46932;DHT22;32670;51.464;11.964;2024-01-06T09:09:17;19.60;41.40
46932;DHT22;32670;51.464;11.964;2024-01-06T09:11:43;19.80;41.40
46932;DHT22;32670;51.464;11.964;2024-01-06T09:14:09;19.90;41.40
46932;DHT22;32670;51.464;11.964;2024-01-06T09:16:36;20.10;41.60
46932;DHT22;32670;51.464;11.964;2024-01-06T09:19:02;20.10;41.60
46932;DHT22;32670;51.464;11.964;2024-01-06T09:21:27;20.20;41.80
46932;DHT22;32670;51.464;11.964;2024-01-06T09:23:53;20.30;42.00
46932;DHT22;32670;51.464;11.964;2024-01-06T09:26:19;20.30;41.90
46932;DHT22;32670;51.464;11.964;2024-01-06T09:28:44;20.40;42.80
46932;DHT22;32670;51.464;11.964;2024-01-06T09:31:09;20.40;42.40
46932;DHT22;32670;51.464;11.964;2024-01-06T09:33:35;20.50;42.50
46932;DHT22;32670;51.464;11.964;2024-01-06T09:36:01;20.50;42.60
46932;DHT22;32670;51.464;11.964;2024-01-06T09:38:27;20.60;42.80
46932;DHT22;32670;51.464;11.964;2024-01-06T09:40:53;20.60;42.90
46932;DHT22;32670;51.464;11.964;2024-01-06T09:43:19;20.60;42.90
46932;DHT22;32670;51.464;11.964;2024-01-06T09:48:29;20.70;43.20
46932;DHT22;32670;51.464;11.964;2024-01-06T09:51:02;20.70;43.20
46932;DHT22;32670;51.464;11.964;2024-01-06T09:53:33;20.70;43.30
46932;DHT22;32670;51.464;11.964;2024-01-06T09:56:02;20.70;43.30
46932;DHT22;32670;51.464;11.964;2024-01-06T09:58:28;20.80;43.40
46932;DHT22;32670;51.464;11.964;2024-01-06T10:00:59;20.70;43.50
46932;DHT22;32670;51.464;11.964;2024-01-06T10:03:25;20.80;43.50
46932;DHT22;32670;51.464;11.964;2024-01-06T10:05:52;20.80;43.60
46932;DHT22;32670;51.464;11.964;2024-01-06T10:08:18;20.80;43.70
46932;DHT22;32670;51.464;11.964;2024-01-06T10:10:45;20.80;43.70
46932;DHT22;32670;51.464;11.964;2024-01-06T10:13:10;20.90;43.70
46932;DHT22;32670;51.464;11.964;2024-01-06T10:15:36;20.90;43.80
46932;DHT22;32670;51.464;11.964;2024-01-06T10:18:02;20.90;43.90
46932;DHT22;32670;51.464;11.964;2024-01-06T10:20:29;20.90;44.30
46932;DHT22;32670;51.464;11.964;2024-01-06T10:22:54;20.90;44.70
46932;DHT22;32670;51.464;11.964;2024-01-06T10:25:23;21.00;44.60
46932;DHT22;32670;51.464;11.964;2024-01-06T10:27:48;20.90;44.50
46932;DHT22;32670;51.464;11.964;2024-01-06T10:30:14;21.00;44.50
46932;DHT22;32670;51.464;11.964;2024-01-06T10:32:43;21.00;44.50
46932;DHT22;32670;51.464;11.964;2024-01-06T10:35:09;21.00;44.50
46932;DHT22;32670;51.464;11.964;2024-01-06T10:37:36;21.00;44.50
46932;DHT22;32670;51.464;11.964;2024-01-06T10:40:13;21.00;44.50
46932;DHT22;32670;51.464;11.964;2024-01-06T10:42:40;21.00;44.60
46932;DHT22;32670;51.464;11.964;2024-01-06T10:45:08;21.00;44.60
46932;DHT22;32670;51.464;11.964;2024-01-06T10:47:35;21.00;44.60
46932;DHT22;32670;51.464;11.964;2024-01-06T10:50:01;21.00;44.60
46932;DHT22;32670;51.464;11.964;2024-01-06T10:52:28;21.00;44.60
46932;DHT22;32670;51.464;11.964;2024-01-06T10:54:57;21.00;44.70
46932;DHT22;32670;51.464;11.964;2024-01-06T10:57:23;21.00;44.70
46932;DHT22;32670;51.464;11.964;2024-01-06T10:59:51;21.00;44.70
46932;DHT22;32670;51.464;11.964;2024-01-06T11:02:17;21.00;44.70
46932;DHT22;32670;51.464;11.964;2024-01-06T11:04:46;21.00;44.80
46932;DHT22;32670;51.464;11.964;2024-01-06T11:07:13;21.10;44.80
46932;DHT22;32670;51.464;11.964;2024-01-06T11:09:50;21.10;44.90
46932;DHT22;32670;51.464;11.964;2024-01-06T11:12:18;21.00;44.80
46932;DHT22;32670;51.464;11.964;2024-01-06T11:14:44;21.00;44.80
46932;DHT22;32670;51.464;11.964;2024-01-06T11:17:11;21.00;44.90
46932;DHT22;32670;51.464;11.964;2024-01-06T11:24:47;21.10;45.00
46932;DHT22;32670;51.464;11.964;2024-01-06T11:27:28;21.10;45.00
46932;DHT22;32670;51.464;11.964;2024-01-06T11:29:55;21.10;44.90
46932;DHT22;32670;51.464;11.964;2024-01-06T11:32:32;21.10;45.00
46932;DHT22;32670;51.464;11.964;2024-01-06T11:35:16;21.10;45.00
46932;DHT22;32670;51.464;11.964;2024-01-06T11:40:32;21.10;45.00
46932;DHT22;32670;51.464;11.964;2024-01-06T11:43:09;21.10;45.00
46932;DHT22;32670;51.464;11.964;2024-01-06T11:45:37;21.10;45.10
46932;DHT22;32670;51.464;11.964;2024-01-06T11:48:05;21.10;45.00
46932;DHT22;32670;51.464;11.964;2024-01-06T11:50:33;21.10;45.10
46932;DHT22;32670;51.464;11.964;2024-01-06T11:53:00;21.10;45.10
46932;DHT22;32670;51.464;11.964;2024-01-06T11:55:26;21.10;45.10
46932;DHT22;32670;51.464;11.964;2024-01-06T11:57:57;21.10;45.10
46932;DHT22;32670;51.464;11.964;2024-01-06T12:00:23;21.10;45.10
46932;DHT22;32670;51.464;11.964;2024-01-06T12:02:49;21.20;45.20
46932;DHT22;32670;51.464;11.964;2024-01-06T12:05:16;21.10;45.10
46932;DHT22;32670;51.464;11.964;2024-01-06T12:07:43;21.10;45.10
46932;DHT22;32670;51.464;11.964;2024-01-06T12:10:09;21.10;45.10
46932;DHT22;32670;51.464;11.964;2024-01-06T12:12:34;21.20;45.20
46932;DHT22;32670;51.464;11.964;2024-01-06T12:15:00;21.20;45.20
46932;DHT22;32670;51.464;11.964;2024-01-06T12:17:29;21.10;45.20
46932;DHT22;32670;51.464;11.964;2024-01-06T12:19:55;21.20;45.20
46932;DHT22;32670;51.464;11.964;2024-01-06T12:22:20;21.20;45.20
46932;DHT22;32670;51.464;11.964;2024-01-06T12:24:49;21.20;45.20
46932;DHT22;32670;51.464;11.964;2024-01-06T12:27:14;21.10;45.20
46932;DHT22;32670;51.464;11.964;2024-01-06T12:29:41;21.20;45.20
46932;DHT22;32670;51.464;11.964;2024-01-06T12:32:08;21.20;45.20
46932;DHT22;32670;51.464;11.964;2024-01-06T12:34:34;21.20;45.20
46932;DHT22;32670;51.464;11.964;2024-01-06T12:37:01;21.20;45.20
46932;DHT22;32670;51.464;11.964;2024-01-06T12:39:30;21.20;45.20
46932;DHT22;32670;51.464;11.964;2024-01-06T12:41:56;21.20;45.30
46932;DHT22;32670;51.464;11.964;2024-01-06T12:44:22;21.20;45.30
46932;DHT22;32670;51.464;11.964;2024-01-06T12:46:48;21.20;45.30
46932;DHT22;32670;51.464;11.964;2024-01-06T12:49:14;21.20;45.20
46932;DHT22;32670;51.464;11.964;2024-01-06T12:51:39;21.20;45.30
46932;DHT22;32670;51.464;11.964;2024-01-06T12:54:05;21.20;45.30
46932;DHT22;32670;51.464;11.964;2024-01-06T12:56:30;21.20;45.30
46932;DHT22;32670;51.464;11.964;2024-01-06T12:58:56;21.20;45.30
46932;DHT22;32670;51.464;11.964;2024-01-06T13:01:22;21.20;45.30
46932;DHT22;32670;51.464;11.964;2024-01-06T13:03:47;21.20;45.30
46932;DHT22;32670;51.464;11.964;2024-01-06T13:06:13;21.20;45.30
46932;DHT22;32670;51.464;11.964;2024-01-06T13:08:39;21.20;45.30
46932;DHT22;32670;51.464;11.964;2024-01-06T13:11:05;21.20;45.30
46932;DHT22;32670;51.464;11.964;2024-01-06T13:13:30;21.20;45.30
46932;DHT22;32670;51.464;11.964;2024-01-06T13:15:57;21.20;45.30
46932;DHT22;32670;51.464;11.964;2024-01-06T13:18:22;21.20;45.40
46932;DHT22;32670;51.464;11.964;2024-01-06T13:20:47;21.20;45.30
46932;DHT22;32670;51.464;11.964;2024-01-06T13:23:13;21.20;45.40
46932;DHT22;32670;51.464;11.964;2024-01-06T13:25:38;21.20;45.30
46932;DHT22;32670;51.464;11.964;2024-01-06T13:28:06;21.20;45.40
46932;DHT22;32670;51.464;11.964;2024-01-06T13:30:31;21.20;45.40
46932;DHT22;32670;51.464;11.964;2024-01-06T13:32:58;21.20;45.30
46932;DHT22;32670;51.464;11.964;2024-01-06T13:35:24;21.20;45.40
46932;DHT22;32670;51.464;11.964;2024-01-06T13:37:51;21.20;45.40
46932;DHT22;32670;51.464;11.964;2024-01-06T13:40:17;21.20;45.40
46932;DHT22;32670;51.464;11.964;2024-01-06T13:42:48;21.20;45.40
46932;DHT22;32670;51.464;11.964;2024-01-06T13:45:14;21.20;45.40
46932;DHT22;32670;51.464;11.964;2024-01-06T13:47:40;21.20;45.40
46932;DHT22;32670;51.464;11.964;2024-01-06T13:50:14;21.20;45.40
46932;DHT22;32670;51.464;11.964;2024-01-06T13:52:40;21.20;45.70
46932;DHT22;32670;51.464;11.964;2024-01-06T13:55:06;21.20;45.70
46932;DHT22;32670;51.464;11.964;2024-01-06T13:57:32;21.20;45.60
46932;DHT22;32670;51.464;11.964;2024-01-06T13:59:57;21.20;45.60
46932;DHT22;32670;51.464;11.964;2024-01-06T14:02:23;21.20;45.50
46932;DHT22;32670;51.464;11.964;2024-01-06T14:04:50;21.20;45.50
46932;DHT22;32670;51.464;11.964;2024-01-06T14:07:15;21.20;45.50
46932;DHT22;32670;51.464;11.964;2024-01-06T14:09:44;21.20;45.50
46932;DHT22;32670;51.464;11.964;2024-01-06T14:12:10;21.20;45.50
46932;DHT22;32670;51.464;11.964;2024-01-06T14:14:35;21.20;45.50
46932;DHT22;32670;51.464;11.964;2024-01-06T14:17:01;21.20;45.50
46932;DHT22;32670;51.464;11.964;2024-01-06T14:19:26;21.20;45.50
46932;DHT22;32670;51.464;11.964;2024-01-06T14:21:52;21.20;45.50
46932;DHT22;32670;51.464;11.964;2024-01-06T14:24:17;21.20;45.50
46932;DHT22;32670;51.464;11.964;2024-01-06T14:26:49;21.20;45.50
46932;DHT22;32670;51.464;11.964;2024-01-06T14:29:15;21.30;45.60
46932;DHT22;32670;51.464;11.964;2024-01-06T14:31:42;21.20;45.50
46932;DHT22;32670;51.464;11.964;2024-01-06T14:34:07;21.20;45.60
46932;DHT22;32670;51.464;11.964;2024-01-06T14:36:33;21.20;45.50
46932;DHT22;32670;51.464;11.964;2024-01-06T14:38:58;21.20;45.50
46932;DHT22;32670;51.464;11.964;2024-01-06T14:41:23;21.20;45.50
46932;DHT22;32670;51.464;11.964;2024-01-06T14:43:49;21.20;45.50
46932;DHT22;32670;51.464;11.964;2024-01-06T14:46:14;21.20;45.50
46932;DHT22;32670;51.464;11.964;2024-01-06T14:48:40;21.20;45.50
46932;DHT22;32670;51.464;11.964;2024-01-06T14:51:05;21.20;45.50
46932;DHT22;32670;51.464;11.964;2024-01-06T14:53:31;21.20;46.10
46932;DHT22;32670;51.464;11.964;2024-01-06T14:55:56;21.20;45.50
46932;DHT22;32670;51.464;11.964;2024-01-06T14:58:22;21.20;45.50
46932;DHT22;32670;51.464;11.964;2024-01-06T15:00:47;21.30;45.60
46932;DHT22;32670;51.464;11.964;2024-01-06T15:03:13;21.20;45.60
46932;DHT22;32670;51.464;11.964;2024-01-06T15:05:38;21.20;45.60
46932;DHT22;32670;51.464;11.964;2024-01-06T15:08:04;21.20;45.50
46932;DHT22;32670;51.464;11.964;2024-01-06T15:10:29;21.20;45.50
46932;DHT22;32670;51.464;11.964;2024-01-06T15:12:55;21.20;45.50
46932;DHT22;32670;51.464;11.964;2024-01-06T15:15:20;21.20;45.50
46932;DHT22;32670;51.464;11.964;2024-01-06T15:17:46;21.20;45.60